Decoded Metar for MMSD (SAN JOSE DEL CABO in MEXICO) (IATA:SJD) | Meteo·Mobile Aviation Weather
aviador You're here:

MMSD Decoded Metar

SAN JOSE DEL CABO in MEXICO
Report Time2018-09-21 03:40:00
UTC Time2018-09-21 04:15:49
Flight Rules vfr VFR
Wind300° at 04 kt
W.Decomp.*RWY 34: 2.6 kt HW 3 kt LCW
W.Rank300° ranks 6
Current wind is below 300° avg. (6.4)
Visibility9999 m
Phenomena:N/A
Clouds:Scattered CB 040 Hf
Scattered 220 Hf
Expected CloudBase > 1,600 ft AGL from Temp-Dew spread
CeilingNone
Temp26°C (ISA +12)
Dew Point22°C (79% RH)
QNH1012 hPa
Density Alt2,093 ft
Elevation358 ft
Report Wrong Elevation
Raw Report
METAR MMSD 210340Z 30004KT 12SM SCT040CB SCT220 26/22 A2989 RMK 8/308=

Extra information for MMSD:More info

Metar Taf Metar & Taf Last 4 Metars F.Rules Stats Wind Profile Meteogram Temp Stats Airport Information Weather charts Add Link Nearby VenuesMetar ALERT Operation Metar Decoded Social comments